Time;durP1;ratioP1;P1;durP2;ratioP2;P2;SDS_P1;SDS_P2;PMS_P1;PMS_P2;Temp;Humidity;BMP_temperature;BMP_pressure;BME280_temperature;BME280_humidity;BME280_pressure;Samples;Min_cycle;Max_cycle;Signal;HPM_P1;HPM_P2
2022/06/10 00:00:56;;;;;;;5.95;2.17;;;12.00;99.90;;;;;;5051000;28;20028;-76
2022/06/10 00:03:24;;;;;;;5.18;1.98;;;12.00;99.90;;;;;;5066828;28;20100;-76
2022/06/10 00:05:52;;;;;;;9.48;2.30;;;12.00;99.90;;;;;;5050834;28;20535;-76
2022/06/10 00:08:22;;;;;;;5.95;1.92;;;12.00;99.90;;;;;;5066353;28;20074;-76
2022/06/10 00:10:51;;;;;;;5.88;1.83;;;12.00;99.90;;;;;;5064852;28;20036;-76
2022/06/10 00:13:20;;;;;;;5.85;2.00;;;12.00;99.90;;;;;;5065342;28;20086;-76
2022/06/10 00:15:46;;;;;;;6.55;2.08;;;12.00;99.90;;;;;;5052959;28;20407;-76
2022/06/10 00:18:12;;;;;;;6.55;2.00;;;12.00;99.90;;;;;;5051882;28;20033;-76
2022/06/10 00:20:39;;;;;;;5.78;2.10;;;12.00;99.90;;;;;;5055458;28;20492;-76
2022/06/10 00:23:05;;;;;;;3.65;1.95;;;12.00;99.90;;;;;;5065562;28;20021;-76
2022/06/10 00:25:30;;;;;;;4.68;1.83;;;11.90;99.90;;;;;;5068067;28;20061;-76
2022/06/10 00:27:56;;;;;;;5.03;1.80;;;12.00;99.90;;;;;;5052122;28;20466;-76
2022/06/10 00:30:28;;;;;;;4.90;2.00;;;12.00;99.90;;;;;;5065665;28;20426;-76
2022/06/10 00:32:55;;;;;;;3.90;1.80;;;12.00;99.90;;;;;;5070804;28;20035;-76
2022/06/10 00:35:21;;;;;;;4.70;1.90;;;12.00;99.90;;;;;;5063901;28;20021;-75
2022/06/10 00:37:47;;;;;;;4.45;2.10;;;11.90;99.90;;;;;;5051494;28;20075;-76
2022/06/10 00:40:18;;;;;;;4.57;1.92;;;11.90;99.90;;;;;;5058243;28;20733;-76
2022/06/10 00:42:43;;;;;;;4.35;1.98;;;11.90;99.90;;;;;;5058725;28;20051;-75
2022/06/10 00:45:47;;;;;;;4.30;2.25;;;11.90;99.90;;;;;;5066340;28;20025;-76
2022/06/10 00:48:17;;;;;;;8.80;2.13;;;11.90;99.90;;;;;;5081943;28;20089;-76
2022/06/10 00:50:44;;;;;;;4.22;1.70;;;11.90;99.90;;;;;;5061255;28;20024;-76
2022/06/10 00:53:13;;;;;;;6.55;2.28;;;11.90;99.90;;;;;;5071916;28;20074;-76
2022/06/10 00:55:40;;;;;;;4.90;2.00;;;11.90;99.90;;;;;;5072741;28;20028;-76
2022/06/10 00:58:18;;;;;;;4.25;1.73;;;11.90;99.90;;;;;;5075456;28;20039;-75
2022/06/10 01:00:44;;;;;;;4.32;1.88;;;11.90;99.90;;;;;;5068053;28;20036;-76
2022/06/10 01:03:10;;;;;;;4.63;1.77;;;11.90;99.90;;;;;;5055427;28;20021;-76
2022/06/10 01:05:36;;;;;;;4.20;1.80;;;11.90;99.90;;;;;;5069601;28;20025;-76
2022/06/10 01:08:07;;;;;;;4.82;1.80;;;11.90;99.90;;;;;;5055360;28;20462;-76
2022/06/10 01:10:48;;;;;;;4.65;1.83;;;11.90;99.90;;;;;;5066402;28;20032;-76
2022/06/10 01:13:31;;;;;;;6.80;1.83;;;11.80;99.90;;;;;;5055285;28;20035;-76
2022/06/10 01:16:23;;;;;;;4.97;1.85;;;11.80;99.90;;;;;;5055224;28;20086;-76
2022/06/10 01:18:58;;;;;;;6.53;1.92;;;11.80;99.90;;;;;;5056020;28;20025;-76
2022/06/10 01:21:35;;;;;;;3.80;2.10;;;11.80;99.90;;;;;;5065794;28;20070;-76
2022/06/10 01:24:18;;;;;;;4.60;1.90;;;11.80;99.90;;;;;;5056876;28;20036;-76
2022/06/10 01:30:11;;;;;;;7.15;2.00;;;11.80;99.90;;;;;;5064057;28;20039;-76
2022/06/10 01:32:42;;;;;;;8.05;1.92;;;11.80;99.90;;;;;;5074523;28;20028;-76
2022/06/10 01:35:23;;;;;;;5.85;1.88;;;11.70;99.90;;;;;;5076959;28;20050;-75
2022/06/10 01:37:55;;;;;;;4.28;1.85;;;11.70;99.90;;;;;;5073532;28;20021;-75
2022/06/10 01:40:39;;;;;;;4.45;2.10;;;11.70;99.90;;;;;;5065728;28;20021;-76
2022/06/10 01:43:17;;;;;;;4.25;1.85;;;11.70;99.90;;;;;;5064048;28;20009;-76
2022/06/10 01:46:01;;;;;;;5.07;2.10;;;11.70;99.90;;;;;;5064749;28;20027;-76
2022/06/10 01:48:52;;;;;;;4.28;2.10;;;11.70;99.90;;;;;;5073287;28;20024;-76
2022/06/10 01:51:25;;;;;;;3.92;2.00;;;11.70;99.90;;;;;;5060350;28;20070;-77
2022/06/10 01:54:15;;;;;;;7.38;2.13;;;11.70;99.90;;;;;;5052033;28;20097;-76
2022/06/10 01:56:46;;;;;;;3.78;1.77;;;11.70;99.90;;;;;;5049873;28;20378;-76
2022/06/10 01:59:44;;;;;;;3.53;1.90;;;11.70;99.90;;;;;;5074299;28;20373;-76
2022/06/10 02:02:17;;;;;;;6.80;1.95;;;11.70;99.90;;;;;;5046694;28;20082;-76
2022/06/10 02:04:52;;;;;;;4.47;2.10;;;11.70;99.90;;;;;;5055047;28;20054;-76
2022/06/10 02:07:27;;;;;;;6.05;1.65;;;11.70;99.90;;;;;;5058496;28;20036;-76
2022/06/10 02:09:59;;;;;;;5.00;1.88;;;11.60;99.90;;;;;;5061292;28;20099;-76
2022/06/10 02:12:34;;;;;;;6.60;2.20;;;11.60;99.90;;;;;;5059756;28;20029;-76
2022/06/10 02:15:24;;;;;;;5.90;2.05;;;11.60;99.90;;;;;;5060148;28;20025;-76
2022/06/10 02:18:01;;;;;;;10.80;2.28;;;11.60;99.90;;;;;;5045468;28;20057;-76
2022/06/10 02:20:31;;;;;;;7.03;2.00;;;11.60;99.90;;;;;;5049804;28;20759;-76
2022/06/10 02:23:01;;;;;;;4.63;2.30;;;11.50;99.90;;;;;;5053951;28;20092;-76
2022/06/10 02:25:38;;;;;;;7.10;2.20;;;11.50;99.90;;;;;;5052942;28;20074;-76
2022/06/10 02:28:08;;;;;;;5.45;2.03;;;11.50;99.90;;;;;;5062730;28;20040;-76
2022/06/10 02:30:49;;;;;;;4.40;1.90;;;11.50;99.90;;;;;;5059273;28;20017;-76
2022/06/10 02:33:15;;;;;;;6.07;1.88;;;11.50;99.90;;;;;;5054374;28;20040;-76
2022/06/10 02:36:16;;;;;;;3.85;1.92;;;11.40;99.90;;;;;;5054067;28;20513;-76
2022/06/10 02:39:20;;;;;;;7.50;2.28;;;11.40;99.90;;;;;;5054138;28;20105;-76
2022/06/10 02:41:51;;;;;;;4.85;2.03;;;11.40;99.90;;;;;;5066715;28;20424;-76
2022/06/10 02:44:30;;;;;;;6.47;2.33;;;11.40;99.90;;;;;;5052991;28;20525;-76
2022/06/10 02:47:01;;;;;;;5.40;2.13;;;11.40;99.90;;;;;;5062404;28;20402;-76
2022/06/10 02:49:28;;;;;;;8.32;2.67;;;11.40;99.90;;;;;;5053264;28;20051;-76
2022/06/10 02:51:53;;;;;;;7.45;2.15;;;11.40;99.90;;;;;;5052196;28;20103;-76
2022/06/10 02:54:26;;;;;;;4.13;2.00;;;11.30;99.90;;;;;;5052210;28;20116;-76
2022/06/10 02:56:52;;;;;;;4.57;2.00;;;11.40;99.90;;;;;;5053256;28;20033;-76
2022/06/10 03:02:08;;;;;;;5.28;2.00;;;11.30;99.90;;;;;;5053336;28;20059;-76
2022/06/10 03:05:06;;;;;;;4.47;1.98;;;11.40;99.90;;;;;;5053071;28;20489;-76
2022/06/10 03:08:09;;;;;;;4.78;2.00;;;11.30;99.90;;;;;;5053418;28;20017;-76
2022/06/10 03:10:38;;;;;;;4.68;2.20;;;11.40;99.90;;;;;;5043736;28;20056;-76
2022/06/10 03:13:28;;;;;;;5.60;2.03;;;11.30;99.90;;;;;;5052932;28;20021;-76
2022/06/10 03:16:28;;;;;;;6.88;2.15;;;11.30;99.90;;;;;;5053087;28;20033;-76
2022/06/10 03:19:38;;;;;;;3.30;1.88;;;11.30;99.90;;;;;;5051959;28;20131;-76
2022/06/10 03:22:30;;;;;;;6.20;1.98;;;11.30;99.90;;;;;;5039914;28;20100;-76
2022/06/10 03:25:07;;;;;;;7.75;2.53;;;11.30;99.90;;;;;;5051648;28;20025;-76
2022/06/10 03:27:48;;;;;;;4.75;2.30;;;11.30;99.90;;;;;;5052815;28;20017;-76
2022/06/10 03:30:18;;;;;;;6.20;2.58;;;11.30;99.90;;;;;;5052732;28;20384;-76
2022/06/10 03:32:58;;;;;;;6.88;1.92;;;11.30;99.90;;;;;;5051578;28;20430;-76
2022/06/10 03:35:38;;;;;;;4.45;1.98;;;11.30;99.90;;;;;;5052653;28;20028;-76
2022/06/10 03:38:05;;;;;;;6.22;1.90;;;11.20;99.90;;;;;;5052774;28;20016;-76
2022/06/10 03:40:32;;;;;;;6.32;2.20;;;11.20;99.90;;;;;;5052503;28;20025;-76
2022/06/10 03:43:00;;;;;;;6.35;2.17;;;11.20;99.90;;;;;;5052558;28;20804;-76
2022/06/10 03:45:39;;;;;;;4.80;2.22;;;11.20;99.90;;;;;;5052946;28;20125;-76
2022/06/10 03:48:05;;;;;;;8.18;2.05;;;11.20;99.90;;;;;;5052655;28;20491;-76
2022/06/10 03:50:38;;;;;;;6.82;2.10;;;11.20;99.90;;;;;;5052788;28;20033;-76
2022/06/10 03:53:04;;;;;;;5.30;2.00;;;11.20;99.90;;;;;;5052591;28;20025;-76
2022/06/10 03:55:30;;;;;;;5.45;2.10;;;11.20;99.90;;;;;;5052583;28;20108;-76
2022/06/10 03:57:55;;;;;;;4.50;2.13;;;11.30;99.90;;;;;;5052841;28;20025;-76
2022/06/10 04:00:24;;;;;;;6.15;2.30;;;11.30;99.90;;;;;;5052296;28;20064;-76
2022/06/10 04:02:50;;;;;;;5.25;2.35;;;11.30;99.90;;;;;;5052396;28;20029;-76
2022/06/10 04:05:16;;;;;;;4.13;2.08;;;11.30;99.90;;;;;;5052696;28;20051;-76
2022/06/10 04:07:42;;;;;;;4.80;1.65;;;11.40;99.90;;;;;;5052574;28;20028;-76
2022/06/10 04:10:12;;;;;;;7.88;2.00;;;11.40;99.90;;;;;;5052319;28;20036;-76
2022/06/10 04:12:38;;;;;;;5.32;1.90;;;11.40;99.90;;;;;;5052259;28;20013;-76
2022/06/10 04:15:05;;;;;;;5.90;2.10;;;11.40;99.90;;;;;;5052185;28;20052;-76
2022/06/10 04:17:31;;;;;;;4.93;2.10;;;11.50;99.90;;;;;;5045093;28;20037;-76
2022/06/10 04:19:58;;;;;;;6.72;2.20;;;11.50;99.90;;;;;;5068194;28;20113;-76
2022/06/10 04:22:24;;;;;;;4.45;2.60;;;11.50;99.90;;;;;;5050562;28;20017;-76
2022/06/10 04:24:49;;;;;;;3.55;1.90;;;11.60;99.90;;;;;;5054971;28;20020;-76
2022/06/10 04:27:15;;;;;;;2.78;2.00;;;11.60;99.90;;;;;;5054527;28;20332;-76
2022/06/10 04:29:41;;;;;;;6.95;2.65;;;11.60;99.90;;;;;;5051541;28;20028;-76
2022/06/10 04:32:07;;;;;;;8.35;2.10;;;11.70;99.90;;;;;;5065482;28;20036;-76
2022/06/10 04:34:33;;;;;;;5.45;2.35;;;11.70;99.90;;;;;;5066623;28;20533;-76
2022/06/10 04:36:58;;;;;;;7.38;2.13;;;11.70;99.90;;;;;;5055709;28;20100;-76
2022/06/10 04:39:24;;;;;;;6.47;2.08;;;11.80;99.90;;;;;;5061877;28;20111;-76
2022/06/10 04:41:50;;;;;;;5.07;2.00;;;11.80;99.90;;;;;;5055702;28;20020;-76
2022/06/10 04:44:15;;;;;;;7.20;2.28;;;11.90;99.90;;;;;;5058563;28;20058;-76
2022/06/10 04:46:42;;;;;;;4.55;1.90;;;11.90;99.90;;;;;;5055100;28;20029;-76
2022/06/10 04:49:09;;;;;;;7.28;1.90;;;11.90;99.90;;;;;;5055194;28;20029;-76
2022/06/10 04:51:36;;;;;;;3.72;1.90;;;12.00;99.90;;;;;;5060492;28;20444;-76
2022/06/10 04:54:03;;;;;;;2.75;1.67;;;12.00;99.90;;;;;;5055201;28;20367;-76
2022/06/10 04:56:29;;;;;;;6.10;1.83;;;12.10;99.90;;;;;;5056686;28;20025;-76
2022/06/10 04:58:54;;;;;;;3.78;1.98;;;12.20;99.90;;;;;;5054949;28;20036;-76
2022/06/10 05:01:20;;;;;;;3.60;1.70;;;12.20;99.90;;;;;;5060655;28;20350;-77
2022/06/10 05:03:45;;;;;;;5.72;1.88;;;12.30;99.90;;;;;;5045940;28;20025;-76
2022/06/10 05:06:11;;;;;;;5.18;1.85;;;12.30;99.90;;;;;;5058187;28;20024;-76
2022/06/10 05:08:36;;;;;;;3.83;1.90;;;12.40;99.90;;;;;;5064886;28;20111;-76
2022/06/10 05:11:02;;;;;;;3.70;1.70;;;12.50;99.90;;;;;;5050758;28;20059;-76
2022/06/10 05:13:27;;;;;;;5.60;2.65;;;12.50;99.90;;;;;;5055062;28;20079;-76
2022/06/10 05:15:53;;;;;;;3.25;1.67;;;12.60;99.90;;;;;;5048995;28;20027;-76
2022/06/10 05:18:22;;;;;;;8.80;2.67;;;12.70;99.90;;;;;;5057964;28;20037;-76
2022/06/10 05:20:48;;;;;;;5.47;1.75;;;12.80;99.90;;;;;;5049908;28;20028;-76
2022/06/10 05:23:17;;;;;;;4.35;2.00;;;12.90;99.90;;;;;;5066977;28;20021;-76
2022/06/10 05:25:42;;;;;;;4.38;1.63;;;13.00;99.90;;;;;;5063770;28;20029;-76
2022/06/10 05:28:12;;;;;;;4.82;1.75;;;13.00;99.90;;;;;;5057870;28;20358;-77
2022/06/10 05:30:43;;;;;;;5.68;1.70;;;13.10;99.90;;;;;;5053455;28;20017;-79
2022/06/10 05:33:11;;;;;;;3.90;1.70;;;13.20;99.90;;;;;;5073501;28;20116;-77
2022/06/10 05:35:37;;;;;;;7.25;1.98;;;13.20;99.90;;;;;;5056722;28;20025;-77
2022/06/10 05:38:03;;;;;;;4.80;1.73;;;13.30;99.90;;;;;;5054927;28;20029;-78
2022/06/10 05:48:00;;;;;;;4.30;2.33;;;13.40;99.90;;;;;;4952564;22;22272;-79
2022/06/10 05:50:34;;;;;;;5.15;2.00;;;13.50;99.90;;;;;;5047774;28;20048;-77
2022/06/10 05:53:01;;;;;;;4.88;1.90;;;13.50;99.90;;;;;;5034066;28;20053;-77
2022/06/10 05:55:29;;;;;;;5.32;1.90;;;13.50;99.90;;;;;;5051127;28;20028;-79
2022/06/10 05:57:54;;;;;;;5.35;1.77;;;13.60;99.90;;;;;;5049791;28;20173;-79
2022/06/10 06:00:26;;;;;;;3.85;1.80;;;13.70;99.90;;;;;;5051875;28;20466;-78
2022/06/10 06:02:52;;;;;;;7.20;1.88;;;13.80;99.90;;;;;;5051347;28;20025;-78
2022/06/10 06:05:20;;;;;;;6.10;1.80;;;13.90;99.90;;;;;;5052552;28;20523;-78
2022/06/10 06:07:47;;;;;;;5.00;2.10;;;14.10;99.90;;;;;;5054220;28;20029;-78
2022/06/10 06:10:18;;;;;;;6.75;1.90;;;14.30;99.90;;;;;;5054111;28;20025;-79
2022/06/10 06:12:44;;;;;;;4.43;1.77;;;14.40;99.90;;;;;;5054018;28;20465;-79
2022/06/10 06:15:12;;;;;;;4.32;1.80;;;14.50;99.90;;;;;;5054531;28;20378;-79
2022/06/10 06:17:39;;;;;;;3.33;1.92;;;14.70;99.90;;;;;;5054170;28;20036;-79
2022/06/10 06:20:06;;;;;;;6.00;2.05;;;15.00;99.90;;;;;;5053801;28;20134;-78
2022/06/10 06:22:32;;;;;;;5.95;1.70;;;15.30;99.90;;;;;;5040227;28;20082;-79
2022/06/10 06:24:58;;;;;;;7.13;2.10;;;15.50;99.90;;;;;;5042052;28;20069;-79
2022/06/10 06:27:24;;;;;;;3.67;1.80;;;15.70;99.90;;;;;;5042770;28;20421;-79
2022/06/10 06:29:50;;;;;;;4.15;1.60;;;15.80;99.90;;;;;;5049289;28;20037;-79
2022/06/10 06:32:16;;;;;;;4.72;1.95;;;15.90;99.90;;;;;;5053117;28;20037;-79
2022/06/10 06:34:42;;;;;;;6.95;2.47;;;15.80;99.90;;;;;;5056280;28;20032;-79
2022/06/10 06:37:14;;;;;;;5.70;2.10;;;15.80;99.90;;;;;;5052965;28;20028;-79
2022/06/10 06:39:40;;;;;;;4.47;1.65;;;15.90;99.90;;;;;;5028385;28;20033;-79
2022/06/10 06:42:05;;;;;;;4.63;2.03;;;16.00;99.90;;;;;;5053340;28;20094;-78
2022/06/10 06:44:31;;;;;;;7.35;1.95;;;16.00;99.90;;;;;;5063908;28;20024;-78
2022/06/10 06:46:57;;;;;;;4.90;1.70;;;16.10;99.90;;;;;;5056007;28;20017;-78
2022/06/10 06:49:26;;;;;;;4.70;2.10;;;16.20;99.90;;;;;;5041950;28;20046;-78
2022/06/10 06:51:52;;;;;;;5.60;1.90;;;16.30;99.90;;;;;;5028213;28;20666;-78
2022/06/10 06:54:19;;;;;;;5.97;2.17;;;16.40;99.90;;;;;;5032422;28;20017;-78
2022/06/10 06:56:45;;;;;;;6.07;1.70;;;16.50;99.90;;;;;;5015213;28;20021;-78
2022/06/10 06:59:11;;;;;;;6.47;2.35;;;16.60;99.90;;;;;;5010745;28;20687;-79
2022/06/10 07:01:37;;;;;;;4.97;2.22;;;16.60;99.90;;;;;;5023832;28;20021;-78
2022/06/10 07:04:04;;;;;;;5.68;2.03;;;16.80;99.90;;;;;;5023590;28;20033;-79
2022/06/10 07:06:32;;;;;;;5.05;2.22;;;16.90;99.90;;;;;;5035293;28;20056;-78
2022/06/10 07:08:57;;;;;;;6.15;1.73;;;16.80;99.90;;;;;;5034297;28;20773;-78
2022/06/10 07:11:26;;;;;;;5.47;2.08;;;16.90;99.90;;;;;;5031958;28;20056;-78
2022/06/10 07:13:52;;;;;;;6.40;2.00;;;16.80;99.90;;;;;;5032705;28;20067;-79
2022/06/10 07:16:17;;;;;;;3.08;1.70;;;16.80;99.90;;;;;;5027548;28;20057;-78
2022/06/10 07:18:45;;;;;;;6.32;2.17;;;16.60;99.90;;;;;;5027302;28;20021;-78
2022/06/10 07:21:13;;;;;;;5.70;2.13;;;16.70;99.90;;;;;;5032258;28;20082;-78
2022/06/10 07:23:39;;;;;;;6.68;2.08;;;16.50;99.90;;;;;;5032566;28;20508;-78
2022/06/10 07:26:05;;;;;;;9.93;2.42;;;16.60;99.90;;;;;;5032399;28;20029;-78
2022/06/10 07:28:31;;;;;;;5.75;2.20;;;16.70;99.90;;;;;;5032734;28;20022;-78
2022/06/10 07:30:57;;;;;;;6.43;2.30;;;16.80;99.90;;;;;;5018583;28;20383;-78
2022/06/10 07:33:22;;;;;;;7.07;2.28;;;16.60;99.90;;;;;;5008914;28;20029;-78
2022/06/10 07:35:48;;;;;;;8.68;2.30;;;16.60;99.90;;;;;;5024788;28;20424;-78
2022/06/10 07:38:14;;;;;;;4.53;2.17;;;16.50;99.90;;;;;;5032167;28;20529;-78
2022/06/10 07:43:35;;;;;;;4.53;2.08;;;16.50;99.90;;;;;;4990429;28;20081;-79
2022/06/10 07:46:03;;;;;;;6.55;2.30;;;16.40;99.90;;;;;;5025785;28;20114;-79
2022/06/10 07:48:30;;;;;;;7.07;2.28;;;16.30;99.90;;;;;;5016002;28;20041;-79
2022/06/10 07:50:55;;;;;;;6.45;2.53;;;16.30;99.90;;;;;;5035316;28;20025;-79
2022/06/10 07:53:26;;;;;;;6.55;2.70;;;16.40;99.90;;;;;;5038668;28;20037;-79
2022/06/10 07:55:51;;;;;;;5.53;2.35;;;16.40;99.90;;;;;;5058162;28;20158;-79
2022/06/10 07:58:18;;;;;;;5.88;2.33;;;16.50;99.90;;;;;;5055018;28;20108;-79
2022/06/10 08:00:46;;;;;;;5.43;2.47;;;16.60;99.90;;;;;;5052596;28;20501;-79
2022/06/10 08:03:16;;;;;;;6.47;2.70;;;16.70;99.90;;;;;;5052839;28;20025;-79
2022/06/10 08:05:45;;;;;;;7.22;2.45;;;16.90;99.90;;;;;;5049979;28;20029;-79
2022/06/10 08:08:17;;;;;;;6.72;2.83;;;16.90;99.90;;;;;;5049461;28;20044;-79
2022/06/10 08:10:43;;;;;;;5.50;2.50;;;16.90;99.90;;;;;;5055799;28;20071;-79
2022/06/10 08:13:09;;;;;;;6.30;2.63;;;16.90;99.90;;;;;;5039557;28;20043;-79
2022/06/10 08:15:35;;;;;;;3.85;2.63;;;17.00;99.90;;;;;;5055949;28;20109;-79
2022/06/10 08:18:03;;;;;;;7.10;3.10;;;17.10;99.90;;;;;;5050218;28;20069;-78
2022/06/10 08:23:23;;;;;;;5.32;2.83;;;16.90;99.90;;;;;;5044303;28;20051;-79
2022/06/10 08:25:49;;;;;;;6.47;3.40;;;16.80;99.90;;;;;;5055380;28;20086;-79
2022/06/10 08:28:15;;;;;;;6.55;2.92;;;16.80;99.90;;;;;;5056225;28;20051;-79
2022/06/10 08:30:46;;;;;;;5.97;2.88;;;16.90;99.90;;;;;;5055433;28;20604;-79
2022/06/10 08:33:16;;;;;;;7.50;3.45;;;17.10;99.90;;;;;;5055384;28;20025;-79
2022/06/10 08:35:44;;;;;;;5.25;2.63;;;17.20;99.90;;;;;;5047476;28;20432;-79
2022/06/10 08:38:13;;;;;;;10.13;3.25;;;17.50;99.90;;;;;;5051754;28;20036;-79
2022/06/10 08:41:19;;;;;;;8.82;3.00;;;17.70;99.90;;;;;;5049510;28;20025;-79
2022/06/10 08:43:56;;;;;;;4.28;2.80;;;17.90;99.90;;;;;;5052354;28;20059;-79
2022/06/10 08:46:32;;;;;;;9.23;2.80;;;18.00;99.90;;;;;;5071319;28;20393;-72
2022/06/10 08:49:09;;;;;;;8.90;3.30;;;18.10;99.90;;;;;;5075055;28;20060;-71
2022/06/10 08:51:58;;;;;;;5.93;2.97;;;18.10;99.90;;;;;;5061022;28;20033;-71
2022/06/10 08:54:56;;;;;;;7.75;3.10;;;18.10;99.90;;;;;;5066021;28;20428;-71
2022/06/10 08:57:32;;;;;;;6.07;3.05;;;18.10;99.90;;;;;;4974450;28;20058;-71
2022/06/10 09:00:00;;;;;;;6.32;3.30;;;18.00;99.90;;;;;;5052800;28;20411;-72
2022/06/10 09:03:01;;;;;;;5.75;2.75;;;18.00;99.90;;;;;;5052331;28;20126;-72
2022/06/10 09:05:34;;;;;;;7.05;3.05;;;18.00;99.90;;;;;;5053564;28;20103;-72
2022/06/10 09:08:04;;;;;;;7.35;3.40;;;18.00;99.90;;;;;;5055040;28;20040;-72
2022/06/10 09:10:41;;;;;;;6.53;2.80;;;18.00;99.90;;;;;;5054693;28;20072;-72
2022/06/10 09:13:27;;;;;;;6.03;2.83;;;17.90;99.90;;;;;;5054740;28;20049;-71
2022/06/10 09:16:07;;;;;;;7.63;3.60;;;17.90;99.90;;;;;;5055011;28;20108;-72
2022/06/10 09:18:59;;;;;;;6.82;2.72;;;17.80;99.90;;;;;;5053914;28;20021;-72
2022/06/10 09:21:57;;;;;;;7.20;2.80;;;17.80;99.90;;;;;;5035973;28;20035;-71
2022/06/10 09:24:33;;;;;;;6.90;3.67;;;17.70;99.90;;;;;;5055364;28;20021;-71
2022/06/10 09:27:31;;;;;;;7.05;3.20;;;17.60;99.90;;;;;;5042143;28;20025;-71
2022/06/10 09:29:58;;;;;;;10.18;3.47;;;17.50;99.90;;;;;;5021990;28;20036;-72
2022/06/10 09:32:28;;;;;;;10.00;3.78;;;17.60;99.90;;;;;;5057852;28;20106;-72
2022/06/10 09:35:03;;;;;;;5.97;2.90;;;17.70;99.90;;;;;;5052263;28;20017;-72
2022/06/10 09:37:35;;;;;;;;;;;17.80;99.90;;;;;;5060680;28;20021;-72
2022/06/10 09:43:14;;;;;;;6.95;2.70;;;18.40;99.90;;;;;;5049196;28;20056;-72
2022/06/10 09:46:02;;;;;;;8.95;2.53;;;19.00;99.90;;;;;;5049212;28;20078;-72
2022/06/10 09:48:37;;;;;;;4.38;2.25;;;19.60;99.90;;;;;;5031578;28;21259;-72
2022/06/10 09:51:31;;;;;;;7.57;3.00;;;20.10;99.90;;;;;;5048071;28;20540;-72
2022/06/10 09:54:08;;;;;;;6.25;2.70;;;20.80;99.90;;;;;;5049989;28;20037;-72
2022/06/10 09:56:37;;;;;;;6.60;2.72;;;21.40;99.90;;;;;;5049876;28;20071;-72
2022/06/10 09:59:33;;;;;;;11.07;2.88;;;21.50;99.90;;;;;;5050407;28;20025;-71
2022/06/10 10:02:19;;;;;;;4.53;2.60;;;21.50;99.90;;;;;;5049315;28;20431;-74
2022/06/10 10:05:05;;;;;;;8.30;2.95;;;21.80;99.90;;;;;;5040253;28;20021;-71
2022/06/10 10:07:46;;;;;;;4.80;2.63;;;21.80;99.90;;;;;;5052382;28;20496;-71
2022/06/10 10:10:28;;;;;;;7.43;2.50;;;21.70;99.90;;;;;;5048789;28;20025;-71
2022/06/10 10:13:26;;;;;;;7.20;3.05;;;21.40;99.90;;;;;;5052741;28;20029;-71
2022/06/10 10:16:19;;;;;;;4.88;2.78;;;21.20;99.90;;;;;;5053305;28;20037;-71
2022/06/10 10:18:53;;;;;;;3.78;2.33;;;20.80;99.90;;;;;;5049212;28;20029;-72
2022/06/10 10:21:27;;;;;;;;;;;20.50;99.90;;;;;;5038504;28;20018;-71
2022/06/10 10:23:55;;;;;;;4.38;2.10;;;20.30;99.90;;;;;;5053626;28;19950;-71
2022/06/10 10:26:37;;;;;;;4.07;2.25;;;20.20;99.90;;;;;;5033120;28;20024;-71
2022/06/10 10:29:16;;;;;;;5.10;2.22;;;20.00;99.90;;;;;;5051221;28;20075;-71
2022/06/10 10:32:08;;;;;;;4.43;1.98;;;19.90;99.90;;;;;;5048410;28;20592;-78
2022/06/10 10:34:37;;;;;;;3.92;1.95;;;19.80;99.90;;;;;;5048738;28;20035;-70
2022/06/10 10:37:17;;;;;;;5.03;2.05;;;19.80;99.90;;;;;;5053031;28;20365;-71
2022/06/10 10:39:49;;;;;;;4.45;2.22;;;20.00;99.90;;;;;;5047652;28;20101;-71
2022/06/10 10:42:27;;;;;;;3.33;1.90;;;20.10;99.90;;;;;;5049335;28;20028;-76
2022/06/10 10:45:08;;;;;;;5.30;2.03;;;20.00;99.90;;;;;;5053183;28;20112;-71
2022/06/10 10:47:36;;;;;;;5.28;2.10;;;20.20;99.90;;;;;;5058435;28;20021;-71
2022/06/10 10:50:03;;;;;;;4.10;1.80;;;20.50;99.90;;;;;;5058904;28;20059;-72
2022/06/10 10:52:34;;;;;;;6.30;2.25;;;21.00;99.90;;;;;;5031257;28;20461;-71
2022/06/10 10:55:05;;;;;;;4.55;2.10;;;21.20;99.90;;;;;;5051522;28;20037;-71
2022/06/10 10:57:34;;;;;;;5.45;2.17;;;21.50;99.90;;;;;;5032886;28;20033;-71
2022/06/10 11:00:29;;;;;;;3.70;2.13;;;21.80;99.90;;;;;;5052168;28;20386;-71
2022/06/10 11:02:57;;;;;;;5.30;2.35;;;22.00;99.90;;;;;;5009938;28;20474;-71
2022/06/10 11:05:32;;;;;;;5.22;2.85;;;22.10;99.90;;;;;;5047687;28;20044;-76
2022/06/10 11:08:17;;;;;;;3.13;2.33;;;22.40;99.90;;;;;;5048557;28;20063;-76
2022/06/10 11:10:48;;;;;;;6.22;1.98;;;22.70;99.90;;;;;;5057738;28;20148;-77
2022/06/10 11:13:18;;;;;;;7.95;2.33;;;23.00;99.90;;;;;;5050005;28;20029;-72
2022/06/10 11:15:44;;;;;;;4.78;1.85;;;23.20;99.90;;;;;;5036935;28;20025;-71
2022/06/10 11:18:14;;;;;;;5.88;1.80;;;23.30;99.90;;;;;;5043343;28;20106;-76
2022/06/10 11:20:40;;;;;;;3.70;1.50;;;23.20;99.90;;;;;;5046036;28;20095;-77
2022/06/10 11:23:27;;;;;;;4.10;1.90;;;23.40;99.90;;;;;;5047392;28;20037;-76
2022/06/10 11:26:10;;;;;;;6.28;1.80;;;23.70;99.90;;;;;;5044532;28;20038;-76
2022/06/10 11:28:38;;;;;;;4.43;1.60;;;23.90;99.90;;;;;;5041501;28;20091;-76
2022/06/10 11:31:11;;;;;;;4.70;1.73;;;24.10;99.90;;;;;;5041579;28;20040;-76
2022/06/10 11:33:46;;;;;;;2.83;1.40;;;24.60;99.90;;;;;;5039089;28;20397;-76
2022/06/10 11:36:20;;;;;;;4.35;1.50;;;24.90;99.90;;;;;;5032793;28;20049;-76
2022/06/10 11:38:54;;;;;;;4.57;1.98;;;24.80;99.90;;;;;;5046339;28;20044;-72
2022/06/10 11:41:26;;;;;;;3.97;1.65;;;25.00;99.30;;;;;;5046298;28;20055;-72
2022/06/10 11:44:20;;;;;;;5.00;1.90;;;25.10;99.90;;;;;;5046690;28;20108;-72
2022/06/10 11:47:22;;;;;;;3.13;1.70;;;25.50;99.90;;;;;;5029293;28;20036;-72
2022/06/10 11:50:05;;;;;;;3.80;1.60;;;25.70;99.90;;;;;;5042944;28;20080;-72
2022/06/10 11:52:44;;;;;;;5.75;1.88;;;25.60;99.90;;;;;;5045838;28;20028;-76
2022/06/10 11:55:14;;;;;;;5.50;2.28;;;25.20;99.90;;;;;;5045052;28;20486;-76
2022/06/10 12:00:55;;;;;;;3.92;2.03;;;25.10;99.90;;;;;;5040007;28;20052;-72
2022/06/10 12:03:33;;;;;;;3.38;2.20;;;24.70;99.90;;;;;;5046260;28;20124;-72
2022/06/10 12:06:21;;;;;;;4.80;2.15;;;24.30;99.90;;;;;;5046949;28;20029;-72
2022/06/10 12:08:52;;;;;;;3.38;2.03;;;24.20;99.90;;;;;;5045384;28;20065;-72
2022/06/10 12:11:43;;;;;;;4.72;1.83;;;24.40;99.90;;;;;;5045462;28;20180;-72
2022/06/10 12:14:34;;;;;;;5.35;1.83;;;24.10;99.90;;;;;;5045604;28;20032;-75
2022/06/10 12:17:19;;;;;;;4.70;1.73;;;23.90;99.90;;;;;;5039844;28;20025;-76
2022/06/10 12:20:05;;;;;;;3.15;1.63;;;23.80;99.90;;;;;;5038270;28;20479;-76
2022/06/10 12:22:33;;;;;;;5.55;2.35;;;23.70;99.90;;;;;;5042633;28;20036;-75
2022/06/10 12:24:58;;;;;;;4.05;1.90;;;23.90;99.90;;;;;;5042820;28;20027;-75
2022/06/10 12:27:35;;;;;;;3.03;2.15;;;24.20;99.90;;;;;;5043340;28;20029;-75
2022/06/10 12:30:12;;;;;;;3.42;1.92;;;24.40;99.90;;;;;;5040022;28;20025;-75
2022/06/10 12:33:00;;;;;;;3.95;2.00;;;24.20;99.90;;;;;;5042087;28;20480;-76
2022/06/10 12:35:34;;;;;;;7.40;2.05;;;24.10;99.90;;;;;;5044846;28;20032;-76
2022/06/10 12:38:12;;;;;;;4.07;1.67;;;24.60;99.90;;;;;;5025597;28;20040;-76
2022/06/10 12:40:57;;;;;;;3.17;1.77;;;24.90;99.90;;;;;;5038466;28;20040;-76
2022/06/10 12:43:29;;;;;;;;;;;24.60;99.90;;;;;;5045490;28;20443;-76
2022/06/10 12:45:58;;;;;;;4.72;2.35;;;24.10;99.90;;;;;;5046201;28;20296;-75
2022/06/10 12:48:31;;;;;;;4.93;2.00;;;23.80;99.90;;;;;;5045087;28;20087;-75
2022/06/10 12:51:20;;;;;;;2.72;1.80;;;23.60;99.90;;;;;;5043353;28;20032;-75
2022/06/10 12:53:57;;;;;;;2.05;1.55;;;23.20;99.90;;;;;;5047634;28;20029;-76
2022/06/10 12:56:24;;;;;;;3.60;1.95;;;23.20;99.90;;;;;;5039169;28;20037;-75
2022/06/10 12:59:11;;;;;;;3.05;1.85;;;23.10;99.90;;;;;;5046236;28;20037;-76
2022/06/10 13:01:36;;;;;;;3.50;1.80;;;23.20;99.90;;;;;;5043943;28;20154;-76
2022/06/10 13:04:03;;;;;;;3.03;1.67;;;23.50;99.90;;;;;;5042613;28;20021;-76
2022/06/10 13:06:36;;;;;;;3.72;2.20;;;23.80;99.90;;;;;;5048313;28;20028;-75
2022/06/10 13:09:11;;;;;;;10.80;2.47;;;24.50;99.90;;;;;;5041087;28;20037;-75
2022/06/10 13:11:51;;;;;;;2.88;1.88;;;25.00;99.90;;;;;;5048687;28;20033;-71
2022/06/10 13:14:23;;;;;;;3.17;1.90;;;25.20;99.10;;;;;;5032276;28;20045;-72
2022/06/10 13:17:38;;;;;;;3.63;1.83;;;25.00;99.90;;;;;;5031618;28;20048;-72
2022/06/10 13:20:17;;;;;;;4.28;2.10;;;25.10;99.90;;;;;;5008574;28;20083;-72
2022/06/10 13:22:43;;;;;;;8.57;2.60;;;25.60;99.60;;;;;;5031124;28;20045;-73
2022/06/10 13:25:08;;;;;;;4.63;2.08;;;25.70;99.90;;;;;;5049404;28;20031;-72
2022/06/10 13:27:45;;;;;;;6.43;1.85;;;25.70;98.10;;;;;;5048341;28;20025;-71
2022/06/10 13:30:17;;;;;;;28.88;3.30;;;25.70;99.10;;;;;;5046496;28;20029;-72
2022/06/10 13:32:59;;;;;;;3.20;1.60;;;25.90;96.90;;;;;;5030039;28;20025;-72
2022/06/10 13:35:34;;;;;;;5.03;1.70;;;25.60;99.00;;;;;;5048985;28;20070;-72
2022/06/10 13:38:13;;;;;;;3.30;1.98;;;25.30;98.90;;;;;;5047898;28;20482;-72
2022/06/10 13:40:44;;;;;;;3.33;1.75;;;24.90;97.20;;;;;;5046258;28;20040;-72
2022/06/10 13:43:26;;;;;;;5.07;1.60;;;24.20;98.90;;;;;;5045246;28;20029;-72
2022/06/10 13:45:51;;;;;;;10.35;2.28;;;23.80;99.90;;;;;;5049354;28;20039;-72